sensor_id;sensor_type;location;lat;lon;timestamp;pressure;altitude;pressure_sealevel;temperature;humidity
49827;BME280;35715;51.570;6.036;2023-03-21T00:01:16;101561.53;;;11.13;83.94
49827;BME280;35715;51.570;6.036;2023-03-21T00:03:42;101552.69;;;11.22;82.47
49827;BME280;35715;51.570;6.036;2023-03-21T00:06:08;101556.94;;;11.21;82.90
49827;BME280;35715;51.570;6.036;2023-03-21T00:08:35;101559.66;;;11.23;82.36
49827;BME280;35715;51.570;6.036;2023-03-21T00:11:03;101555.38;;;11.23;82.70
49827;BME280;35715;51.570;6.036;2023-03-21T00:13:29;101550.78;;;11.19;83.25
49827;BME280;35715;51.570;6.036;2023-03-21T00:16:04;101543.16;;;11.21;82.84
49827;BME280;35715;51.570;6.036;2023-03-21T00:18:30;101540.34;;;11.17;83.35
49827;BME280;35715;51.570;6.036;2023-03-21T00:20:59;101541.22;;;11.18;82.95
49827;BME280;35715;51.570;6.036;2023-03-21T00:23:25;101539.75;;;11.22;82.63
49827;BME280;35715;51.570;6.036;2023-03-21T00:25:50;101543.81;;;11.18;83.46
49827;BME280;35715;51.570;6.036;2023-03-21T00:28:16;101536.47;;;11.12;83.85
49827;BME280;35715;51.570;6.036;2023-03-21T00:30:45;101536.59;;;11.14;83.27
49827;BME280;35715;51.570;6.036;2023-03-21T00:33:10;101535.59;;;11.12;83.55
49827;BME280;35715;51.570;6.036;2023-03-21T00:35:38;101530.53;;;11.13;83.16
49827;BME280;35715;51.570;6.036;2023-03-21T00:38:03;101532.78;;;11.09;83.87
49827;BME280;35715;51.570;6.036;2023-03-21T00:40:28;101531.09;;;11.09;83.33
49827;BME280;35715;51.570;6.036;2023-03-21T00:42:54;101525.03;;;11.09;83.47
49827;BME280;35715;51.570;6.036;2023-03-21T00:45:19;101521.66;;;11.10;83.16
49827;BME280;35715;51.570;6.036;2023-03-21T00:47:46;101519.41;;;11.03;83.93
49827;BME280;35715;51.570;6.036;2023-03-21T00:50:14;101522.09;;;11.04;83.48
49827;BME280;35715;51.570;6.036;2023-03-21T00:52:40;101513.53;;;11.05;83.21
49827;BME280;35715;51.570;6.036;2023-03-21T00:55:05;101515.34;;;11.06;83.67
49827;BME280;35715;51.570;6.036;2023-03-21T00:57:31;101516.94;;;11.04;84.41
49827;BME280;35715;51.570;6.036;2023-03-21T00:59:57;101516.47;;;10.98;85.73
49827;BME280;35715;51.570;6.036;2023-03-21T01:02:23;101520.06;;;11.00;85.45
49827;BME280;35715;51.570;6.036;2023-03-21T01:04:51;101520.81;;;10.99;85.83
49827;BME280;35715;51.570;6.036;2023-03-21T01:07:16;101514.66;;;10.97;86.46
49827;BME280;35715;51.570;6.036;2023-03-21T01:09:42;101517.88;;;10.94;86.88
49827;BME280;35715;51.570;6.036;2023-03-21T01:12:08;101505.91;;;10.95;86.75
49827;BME280;35715;51.570;6.036;2023-03-21T01:14:34;101505.78;;;10.93;87.74
49827;BME280;35715;51.570;6.036;2023-03-21T01:17:00;101496.88;;;10.90;88.36
49827;BME280;35715;51.570;6.036;2023-03-21T01:19:25;101509.25;;;10.94;87.44
49827;BME280;35715;51.570;6.036;2023-03-21T01:21:52;101493.09;;;10.96;86.76
49827;BME280;35715;51.570;6.036;2023-03-21T01:24:17;101499.28;;;10.98;87.13
49827;BME280;35715;51.570;6.036;2023-03-21T01:26:42;101495.81;;;10.98;87.49
49827;BME280;35715;51.570;6.036;2023-03-21T01:29:08;101492.66;;;11.02;86.52
49827;BME280;35715;51.570;6.036;2023-03-21T01:31:33;101499.84;;;11.06;86.37
49827;BME280;35715;51.570;6.036;2023-03-21T01:33:58;101495.63;;;11.07;86.13
49827;BME280;35715;51.570;6.036;2023-03-21T01:36:24;101490.44;;;11.07;86.47
49827;BME280;35715;51.570;6.036;2023-03-21T01:38:50;101490.56;;;11.08;86.21
49827;BME280;35715;51.570;6.036;2023-03-21T01:41:39;101490.00;;;11.12;85.70
49827;BME280;35715;51.570;6.036;2023-03-21T01:44:03;101481.47;;;11.13;85.61
49827;BME280;35715;51.570;6.036;2023-03-21T01:46:42;101479.88;;;11.15;85.34
49827;BME280;35715;51.570;6.036;2023-03-21T01:49:14;101482.69;;;11.18;85.03
49827;BME280;35715;51.570;6.036;2023-03-21T01:51:57;101477.53;;;11.18;85.19
49827;BME280;35715;51.570;6.036;2023-03-21T01:54:25;101478.56;;;11.21;84.91
49827;BME280;35715;51.570;6.036;2023-03-21T01:56:53;101463.06;;;11.21;85.19
49827;BME280;35715;51.570;6.036;2023-03-21T01:59:23;101468.47;;;11.24;84.92
49827;BME280;35715;51.570;6.036;2023-03-21T02:01:50;101461.50;;;11.23;84.56
49827;BME280;35715;51.570;6.036;2023-03-21T02:04:16;101459.91;;;11.25;84.24
49827;BME280;35715;51.570;6.036;2023-03-21T02:07:08;101447.81;;;11.24;84.20
49827;BME280;35715;51.570;6.036;2023-03-21T02:09:41;101446.66;;;11.20;84.23
49827;BME280;35715;51.570;6.036;2023-03-21T02:12:09;101445.44;;;11.15;84.35
49827;BME280;35715;51.570;6.036;2023-03-21T02:14:35;101444.44;;;11.13;84.74
49827;BME280;35715;51.570;6.036;2023-03-21T02:24:54;101434.28;;;11.04;84.82
49827;BME280;35715;51.570;6.036;2023-03-21T02:27:28;101435.84;;;11.02;85.14
49827;BME280;35715;51.570;6.036;2023-03-21T02:43:15;101412.84;;;10.93;85.45
49827;BME280;35715;51.570;6.036;2023-03-21T02:45:44;101419.00;;;10.95;85.00
49827;BME280;35715;51.570;6.036;2023-03-21T02:48:12;101419.13;;;10.97;85.11
49827;BME280;35715;51.570;6.036;2023-03-21T02:53:26;101407.22;;;10.87;85.75
49827;BME280;35715;51.570;6.036;2023-03-21T02:55:52;101397.88;;;10.89;85.65
49827;BME280;35715;51.570;6.036;2023-03-21T02:58:19;101402.06;;;10.87;85.45
49827;BME280;35715;51.570;6.036;2023-03-21T03:00:45;101403.72;;;10.87;85.45
49827;BME280;35715;51.570;6.036;2023-03-21T03:03:13;101397.44;;;10.83;85.82
49827;BME280;35715;51.570;6.036;2023-03-21T03:05:45;101402.81;;;10.86;85.56
49827;BME280;35715;51.570;6.036;2023-03-21T03:16:27;101402.72;;;10.85;85.30
49827;BME280;35715;51.570;6.036;2023-03-21T03:18:55;101399.25;;;10.84;85.42
49827;BME280;35715;51.570;6.036;2023-03-21T03:21:32;101402.06;;;10.87;85.05
49827;BME280;35715;51.570;6.036;2023-03-21T03:24:03;101396.78;;;10.86;85.22
49827;BME280;35715;51.570;6.036;2023-03-21T03:26:33;101395.06;;;10.86;85.37
49827;BME280;35715;51.570;6.036;2023-03-21T03:29:00;101394.72;;;10.81;85.53
49827;BME280;35715;51.570;6.036;2023-03-21T03:32:00;101388.41;;;10.78;85.78
49827;BME280;35715;51.570;6.036;2023-03-21T03:34:19;101394.72;;;10.81;85.48
49827;BME280;35715;51.570;6.036;2023-03-21T03:36:46;101388.19;;;10.75;86.10
49827;BME280;35715;51.570;6.036;2023-03-21T03:39:15;101383.53;;;10.81;85.49
49827;BME280;35715;51.570;6.036;2023-03-21T03:41:46;101382.59;;;10.80;85.76
49827;BME280;35715;51.570;6.036;2023-03-21T03:44:15;101376.31;;;10.77;85.67
49827;BME280;35715;51.570;6.036;2023-03-21T03:46:49;101381.59;;;10.78;85.77
49827;BME280;35715;51.570;6.036;2023-03-21T03:49:18;101377.97;;;10.76;85.93
49827;BME280;35715;51.570;6.036;2023-03-21T03:51:55;101374.75;;;10.79;85.72
49827;BME280;35715;51.570;6.036;2023-03-21T03:54:22;101374.63;;;10.77;85.92
49827;BME280;35715;51.570;6.036;2023-03-21T03:56:50;101372.94;;;10.78;85.75
49827;BME280;35715;51.570;6.036;2023-03-21T03:59:16;101370.81;;;10.72;86.02
49827;BME280;35715;51.570;6.036;2023-03-21T04:01:43;101377.97;;;10.76;86.21
49827;BME280;35715;51.570;6.036;2023-03-21T04:04:08;101374.09;;;10.81;85.56
49827;BME280;35715;51.570;6.036;2023-03-21T04:06:34;101379.25;;;10.81;85.75
49827;BME280;35715;51.570;6.036;2023-03-21T04:09:00;101374.44;;;10.86;85.48
49827;BME280;35715;51.570;6.036;2023-03-21T04:11:27;101379.47;;;10.85;85.33
49827;BME280;35715;51.570;6.036;2023-03-21T04:13:52;101376.56;;;10.80;86.65
49827;BME280;35715;51.570;6.036;2023-03-21T04:16:18;101381.13;;;10.72;88.32
49827;BME280;35715;51.570;6.036;2023-03-21T04:18:43;101371.47;;;10.70;87.76
49827;BME280;35715;51.570;6.036;2023-03-21T04:23:41;101372.13;;;10.67;88.26
49827;BME280;35715;51.570;6.036;2023-03-21T04:26:07;101371.91;;;10.64;89.12
49827;BME280;35715;51.570;6.036;2023-03-21T04:28:32;101371.66;;;10.61;90.32
49827;BME280;35715;51.570;6.036;2023-03-21T04:31:08;101367.06;;;10.57;89.93
49827;BME280;35715;51.570;6.036;2023-03-21T04:33:33;101369.16;;;10.51;90.44
49827;BME280;35715;51.570;6.036;2023-03-21T04:36:03;101369.72;;;10.46;91.41
49827;BME280;35715;51.570;6.036;2023-03-21T04:38:30;101363.78;;;10.47;91.50
49827;BME280;35715;51.570;6.036;2023-03-21T04:40:59;101362.09;;;10.48;91.68
49827;BME280;35715;51.570;6.036;2023-03-21T04:43:24;101361.28;;;10.37;93.06
49827;BME280;35715;51.570;6.036;2023-03-21T04:45:50;101360.91;;;10.33;93.58
49827;BME280;35715;51.570;6.036;2023-03-21T04:48:16;101359.59;;;10.38;92.98
49827;BME280;35715;51.570;6.036;2023-03-21T04:50:45;101353.06;;;10.31;93.89
49827;BME280;35715;51.570;6.036;2023-03-21T04:53:11;101355.50;;;10.29;94.42
49827;BME280;35715;51.570;6.036;2023-03-21T04:55:36;101348.44;;;10.27;94.53
49827;BME280;35715;51.570;6.036;2023-03-21T04:58:02;101344.94;;;10.26;94.70
49827;BME280;35715;51.570;6.036;2023-03-21T05:03:05;101341.34;;;10.24;94.91
49827;BME280;35715;51.570;6.036;2023-03-21T05:05:37;101339.06;;;10.17;96.38
49827;BME280;35715;51.570;6.036;2023-03-21T05:08:02;101334.38;;;10.11;96.68
49827;BME280;35715;51.570;6.036;2023-03-21T05:10:33;101342.34;;;10.15;96.51
49827;BME280;35715;51.570;6.036;2023-03-21T05:12:59;101334.84;;;10.18;96.25
49827;BME280;35715;51.570;6.036;2023-03-21T05:15:24;101331.56;;;10.20;96.06
49827;BME280;35715;51.570;6.036;2023-03-21T05:17:49;101341.59;;;10.27;94.72
49827;BME280;35715;51.570;6.036;2023-03-21T05:20:23;101334.34;;;10.34;94.59
49827;BME280;35715;51.570;6.036;2023-03-21T05:22:49;101337.59;;;10.31;94.91
49827;BME280;35715;51.570;6.036;2023-03-21T05:25:16;101340.94;;;10.30;94.99
49827;BME280;35715;51.570;6.036;2023-03-21T05:27:42;101341.13;;;10.21;95.67
49827;BME280;35715;51.570;6.036;2023-03-21T05:30:25;101338.88;;;10.26;95.28
49827;BME280;35715;51.570;6.036;2023-03-21T05:32:50;101333.84;;;10.27;95.44
49827;BME280;35715;51.570;6.036;2023-03-21T05:35:15;101337.47;;;10.29;94.40
49827;BME280;35715;51.570;6.036;2023-03-21T05:37:41;101333.31;;;10.32;94.34
49827;BME280;35715;51.570;6.036;2023-03-21T05:42:59;101332.69;;;10.34;93.84
49827;BME280;35715;51.570;6.036;2023-03-21T05:45:24;101322.38;;;10.34;93.73
49827;BME280;35715;51.570;6.036;2023-03-21T05:47:50;101327.06;;;10.40;93.21
49827;BME280;35715;51.570;6.036;2023-03-21T05:50:23;101320.56;;;10.33;93.66
49827;BME280;35715;51.570;6.036;2023-03-21T05:52:49;101318.38;;;10.27;94.40
49827;BME280;35715;51.570;6.036;2023-03-21T05:55:14;101319.03;;;10.25;94.93
49827;BME280;35715;51.570;6.036;2023-03-21T05:57:39;101310.97;;;10.32;93.75
49827;BME280;35715;51.570;6.036;2023-03-21T06:00:15;101304.47;;;10.25;94.55
49827;BME280;35715;51.570;6.036;2023-03-21T06:02:41;101305.34;;;10.26;94.64
49827;BME280;35715;51.570;6.036;2023-03-21T06:05:06;101304.94;;;10.32;94.14
49827;BME280;35715;51.570;6.036;2023-03-21T06:07:32;101308.91;;;10.38;93.15
49827;BME280;35715;51.570;6.036;2023-03-21T06:12:28;101306.31;;;10.38;93.34
49827;BME280;35715;51.570;6.036;2023-03-21T06:14:53;101306.56;;;10.41;92.75
49827;BME280;35715;51.570;6.036;2023-03-21T06:17:19;101299.97;;;10.45;92.23
49827;BME280;35715;51.570;6.036;2023-03-21T06:19:47;101306.13;;;10.47;92.37
49827;BME280;35715;51.570;6.036;2023-03-21T06:22:13;101309.72;;;10.49;92.53
49827;BME280;35715;51.570;6.036;2023-03-21T06:24:38;101315.78;;;10.50;92.54
49827;BME280;35715;51.570;6.036;2023-03-21T06:27:03;101318.59;;;10.53;92.55
49827;BME280;35715;51.570;6.036;2023-03-21T06:29:31;101316.78;;;10.52;92.52
49827;BME280;35715;51.570;6.036;2023-03-21T06:31:56;101317.25;;;10.58;92.16
49827;BME280;35715;51.570;6.036;2023-03-21T06:34:22;101316.38;;;10.57;91.87
49827;BME280;35715;51.570;6.036;2023-03-21T06:36:47;101316.47;;;10.59;91.62
49827;BME280;35715;51.570;6.036;2023-03-21T06:39:12;101311.09;;;10.56;91.58
49827;BME280;35715;51.570;6.036;2023-03-21T06:41:42;101310.53;;;10.60;91.16
49827;BME280;35715;51.570;6.036;2023-03-21T06:44:08;101317.28;;;10.70;90.77
49827;BME280;35715;51.570;6.036;2023-03-21T06:46:33;101323.09;;;10.67;91.19
49827;BME280;35715;51.570;6.036;2023-03-21T06:48:58;101312.88;;;10.69;90.92
49827;BME280;35715;51.570;6.036;2023-03-21T06:51:24;101321.22;;;10.64;91.23
49827;BME280;35715;51.570;6.036;2023-03-21T06:53:49;101314.81;;;10.71;90.65
49827;BME280;35715;51.570;6.036;2023-03-21T06:56:14;101320.09;;;10.73;90.54
49827;BME280;35715;51.570;6.036;2023-03-21T06:58:39;101326.94;;;10.72;90.75
49827;BME280;35715;51.570;6.036;2023-03-21T07:01:07;101321.53;;;10.69;91.20
49827;BME280;35715;51.570;6.036;2023-03-21T07:03:33;101321.09;;;10.75;91.05
49827;BME280;35715;51.570;6.036;2023-03-21T07:06:02;101312.22;;;10.71;91.68
49827;BME280;35715;51.570;6.036;2023-03-21T07:08:27;101318.06;;;10.80;91.05
49827;BME280;35715;51.570;6.036;2023-03-21T07:10:54;101314.72;;;10.81;91.02
49827;BME280;35715;51.570;6.036;2023-03-21T07:13:19;101314.81;;;10.83;90.79
49827;BME280;35715;51.570;6.036;2023-03-21T07:15:45;101317.53;;;10.85;91.05
49827;BME280;35715;51.570;6.036;2023-03-21T07:18:10;101316.28;;;10.91;90.81
49827;BME280;35715;51.570;6.036;2023-03-21T07:20:37;101311.13;;;10.91;90.90
49827;BME280;35715;51.570;6.036;2023-03-21T07:23:03;101314.84;;;10.95;90.93
49827;BME280;35715;51.570;6.036;2023-03-21T07:25:28;101310.91;;;11.00;91.32
49827;BME280;35715;51.570;6.036;2023-03-21T07:27:55;101316.63;;;10.96;91.51
49827;BME280;35715;51.570;6.036;2023-03-21T07:30:22;101321.00;;;10.97;91.58
49827;BME280;35715;51.570;6.036;2023-03-21T07:32:47;101323.03;;;11.01;91.26
49827;BME280;35715;51.570;6.036;2023-03-21T07:35:14;101321.44;;;11.03;91.36
49827;BME280;35715;51.570;6.036;2023-03-21T07:37:40;101317.06;;;11.02;91.43
49827;BME280;35715;51.570;6.036;2023-03-21T07:40:15;101323.81;;;11.00;92.00
49827;BME280;35715;51.570;6.036;2023-03-21T07:42:41;101327.50;;;11.04;92.10
49827;BME280;35715;51.570;6.036;2023-03-21T07:45:07;101329.53;;;11.08;91.43
49827;BME280;35715;51.570;6.036;2023-03-21T07:47:32;101324.47;;;11.09;91.87
49827;BME280;35715;51.570;6.036;2023-03-21T07:49:59;101339.97;;;11.09;91.60
49827;BME280;35715;51.570;6.036;2023-03-21T07:52:24;101337.72;;;11.14;92.16
49827;BME280;35715;51.570;6.036;2023-03-21T07:54:50;101341.34;;;11.16;92.13
49827;BME280;35715;51.570;6.036;2023-03-21T07:57:15;101342.56;;;11.21;91.63
49827;BME280;35715;51.570;6.036;2023-03-21T08:02:15;101349.66;;;11.24;91.97
49827;BME280;35715;51.570;6.036;2023-03-21T08:04:41;101348.28;;;11.29;91.00
49827;BME280;35715;51.570;6.036;2023-03-21T08:07:06;101340.88;;;11.22;92.53
49827;BME280;35715;51.570;6.036;2023-03-21T08:09:43;101347.84;;;11.23;92.93
49827;BME280;35715;51.570;6.036;2023-03-21T08:12:08;101343.22;;;11.30;91.89
49827;BME280;35715;51.570;6.036;2023-03-21T08:14:34;101345.69;;;11.29;93.17
49827;BME280;35715;51.570;6.036;2023-03-21T08:17:00;101344.69;;;11.39;92.01
49827;BME280;35715;51.570;6.036;2023-03-21T08:19:25;101338.16;;;11.44;92.31
49827;BME280;35715;51.570;6.036;2023-03-21T08:21:51;101334.00;;;11.46;92.32
49827;BME280;35715;51.570;6.036;2023-03-21T08:24:17;101329.03;;;11.49;91.67
49827;BME280;35715;51.570;6.036;2023-03-21T08:26:42;101331.75;;;11.50;92.54
49827;BME280;35715;51.570;6.036;2023-03-21T08:29:08;101333.66;;;11.53;92.35
49827;BME280;35715;51.570;6.036;2023-03-21T08:31:34;101337.13;;;11.53;92.76
49827;BME280;35715;51.570;6.036;2023-03-21T08:33:59;101333.53;;;11.51;91.76
49827;BME280;35715;51.570;6.036;2023-03-21T08:36:24;101325.91;;;11.53;92.60
49827;BME280;35715;51.570;6.036;2023-03-21T08:38:55;101336.47;;;11.56;92.47
49827;BME280;35715;51.570;6.036;2023-03-21T08:41:31;101331.28;;;11.56;91.75
49827;BME280;35715;51.570;6.036;2023-03-21T08:43:57;101323.66;;;11.58;91.76
49827;BME280;35715;51.570;6.036;2023-03-21T08:46:22;101328.72;;;11.56;91.49
49827;BME280;35715;51.570;6.036;2023-03-21T08:48:47;101327.59;;;11.52;91.62
49827;BME280;35715;51.570;6.036;2023-03-21T08:51:14;101322.88;;;11.47;92.36
49827;BME280;35715;51.570;6.036;2023-03-21T08:53:40;101320.53;;;11.50;92.49
49827;BME280;35715;51.570;6.036;2023-03-21T08:56:08;101314.91;;;11.56;91.96
49827;BME280;35715;51.570;6.036;2023-03-21T08:58:34;101315.34;;;11.50;92.14
49827;BME280;35715;51.570;6.036;2023-03-21T09:01:00;101306.22;;;11.55;91.98
49827;BME280;35715;51.570;6.036;2023-03-21T09:03:25;101312.22;;;11.54;91.95
49827;BME280;35715;51.570;6.036;2023-03-21T09:05:51;101308.69;;;11.53;92.25
49827;BME280;35715;51.570;6.036;2023-03-21T09:08:17;101308.91;;;11.57;92.41
49827;BME280;35715;51.570;6.036;2023-03-21T09:10:55;101304.91;;;11.48;92.51
49827;BME280;35715;51.570;6.036;2023-03-21T09:13:21;101305.22;;;11.53;92.89
49827;BME280;35715;51.570;6.036;2023-03-21T09:15:46;101307.72;;;11.51;93.71
49827;BME280;35715;51.570;6.036;2023-03-21T09:18:12;101301.28;;;11.58;93.26
49827;BME280;35715;51.570;6.036;2023-03-21T09:23:24;101295.53;;;11.62;94.75
49827;BME280;35715;51.570;6.036;2023-03-21T09:25:50;101303.16;;;11.72;93.81
49827;BME280;35715;51.570;6.036;2023-03-21T09:28:16;101292.94;;;11.74;93.92
49827;BME280;35715;51.570;6.036;2023-03-21T09:30:54;101294.34;;;11.82;93.93
49827;BME280;35715;51.570;6.036;2023-03-21T09:33:22;101291.41;;;11.89;93.52
49827;BME280;35715;51.570;6.036;2023-03-21T09:35:49;101287.72;;;11.98;93.58
49827;BME280;35715;51.570;6.036;2023-03-21T09:38:14;101278.16;;;11.85;93.10
49827;BME280;35715;51.570;6.036;2023-03-21T09:43:34;101280.53;;;11.82;93.08
49827;BME280;35715;51.570;6.036;2023-03-21T09:48:44;101268.34;;;11.67;93.71
49827;BME280;35715;51.570;6.036;2023-03-21T09:51:14;101270.94;;;11.67;93.55
49827;BME280;35715;51.570;6.036;2023-03-21T09:53:41;101264.69;;;11.77;93.78
49827;BME280;35715;51.570;6.036;2023-03-21T09:56:08;101264.81;;;11.79;94.10
49827;BME280;35715;51.570;6.036;2023-03-21T10:03:34;101249.53;;;12.07;93.08
49827;BME280;35715;51.570;6.036;2023-03-21T10:06:01;101247.00;;;12.20;92.02
49827;BME280;35715;51.570;6.036;2023-03-21T10:08:33;101251.53;;;12.11;91.99
49827;BME280;35715;51.570;6.036;2023-03-21T10:11:02;101242.81;;;12.22;91.06
49827;BME280;35715;51.570;6.036;2023-03-21T10:13:41;101238.25;;;12.32;89.97
49827;BME280;35715;51.570;6.036;2023-03-21T10:18:55;101233.75;;;12.29;87.94
49827;BME280;35715;51.570;6.036;2023-03-21T10:21:29;101234.06;;;12.34;88.12
49827;BME280;35715;51.570;6.036;2023-03-21T10:23:56;101229.50;;;12.30;88.29
49827;BME280;35715;51.570;6.036;2023-03-21T10:26:23;101222.66;;;12.43;88.54
49827;BME280;35715;51.570;6.036;2023-03-21T10:28:50;101223.34;;;12.41;87.57
49827;BME280;35715;51.570;6.036;2023-03-21T10:31:17;101216.56;;;12.56;87.31
49827;BME280;35715;51.570;6.036;2023-03-21T10:33:43;101213.78;;;12.53;86.68
49827;BME280;35715;51.570;6.036;2023-03-21T10:36:11;101208.41;;;12.50;86.21
49827;BME280;35715;51.570;6.036;2023-03-21T10:38:43;101225.25;;;12.43;86.57
49827;BME280;35715;51.570;6.036;2023-03-21T10:41:14;101219.75;;;12.39;84.70
49827;BME280;35715;51.570;6.036;2023-03-21T10:43:40;101211.53;;;12.45;85.55
49827;BME280;35715;51.570;6.036;2023-03-21T10:46:07;101224.34;;;12.43;85.89
49827;BME280;35715;51.570;6.036;2023-03-21T10:48:37;101205.94;;;12.52;86.54
49827;BME280;35715;51.570;6.036;2023-03-21T10:53:38;101210.41;;;12.54;85.99
49827;BME280;35715;51.570;6.036;2023-03-21T10:56:05;101209.63;;;12.42;85.16
49827;BME280;35715;51.570;6.036;2023-03-21T10:58:34;101196.97;;;12.47;85.63
49827;BME280;35715;51.570;6.036;2023-03-21T11:01:04;101196.69;;;12.55;85.26
49827;BME280;35715;51.570;6.036;2023-03-21T11:03:31;101189.72;;;12.54;85.46
49827;BME280;35715;51.570;6.036;2023-03-21T11:06:00;101189.50;;;12.51;85.83
49827;BME280;35715;51.570;6.036;2023-03-21T11:08:26;101184.03;;;12.47;85.63
49827;BME280;35715;51.570;6.036;2023-03-21T11:11:02;101186.13;;;12.52;85.49
49827;BME280;35715;51.570;6.036;2023-03-21T11:13:32;101214.41;;;12.49;86.68
49827;BME280;35715;51.570;6.036;2023-03-21T11:16:11;101201.75;;;12.54;84.02
49827;BME280;35715;51.570;6.036;2023-03-21T11:18:43;101200.47;;;12.74;84.33
49827;BME280;35715;51.570;6.036;2023-03-21T11:21:14;101205.84;;;12.90;83.63
49827;BME280;35715;51.570;6.036;2023-03-21T11:23:41;101204.72;;;12.87;81.42
49827;BME280;35715;51.570;6.036;2023-03-21T11:26:10;101199.34;;;12.97;82.32
49827;BME280;35715;51.570;6.036;2023-03-21T11:28:36;101203.06;;;12.87;81.03
49827;BME280;35715;51.570;6.036;2023-03-21T11:31:21;101196.66;;;12.82;81.75
49827;BME280;35715;51.570;6.036;2023-03-21T11:33:55;101201.06;;;12.83;81.35
49827;BME280;35715;51.570;6.036;2023-03-21T11:38:53;101189.81;;;12.83;80.65
49827;BME280;35715;51.570;6.036;2023-03-21T11:41:38;101183.50;;;12.92;80.05
49827;BME280;35715;51.570;6.036;2023-03-21T11:44:04;101183.28;;;13.16;79.37
49827;BME280;35715;51.570;6.036;2023-03-21T11:46:30;101175.44;;;13.43;78.75
49827;BME280;35715;51.570;6.036;2023-03-21T11:48:56;101182.22;;;13.41;77.62
49827;BME280;35715;51.570;6.036;2023-03-21T12:04:45;101176.22;;;13.55;74.98
49827;BME280;35715;51.570;6.036;2023-03-21T12:09:40;101157.38;;;13.88;75.86
49827;BME280;35715;51.570;6.036;2023-03-21T12:20:13;101147.81;;;14.31;71.47
49827;BME280;35715;51.570;6.036;2023-03-21T12:25:49;101133.84;;;14.29;70.51
49827;BME280;35715;51.570;6.036;2023-03-21T12:28:22;101132.75;;;14.41;69.47
49827;BME280;35715;51.570;6.036;2023-03-21T12:31:10;101121.91;;;14.48;70.20
49827;BME280;35715;51.570;6.036;2023-03-21T12:44:44;101092.47;;;14.79;65.83
49827;BME280;35715;51.570;6.036;2023-03-21T12:47:12;101099.16;;;14.90;65.93
49827;BME280;35715;51.570;6.036;2023-03-21T12:52:33;101094.47;;;15.16;65.12
49827;BME280;35715;51.570;6.036;2023-03-21T12:57:32;101078.72;;;15.29;62.32
49827;BME280;35715;51.570;6.036;2023-03-21T13:02:37;101074.19;;;15.59;62.82
49827;BME280;35715;51.570;6.036;2023-03-21T13:07:32;101075.78;;;15.74;62.70
49827;BME280;35715;51.570;6.036;2023-03-21T13:09:58;101088.47;;;15.68;61.15
49827;BME280;35715;51.570;6.036;2023-03-21T13:15:18;101078.78;;;15.82;63.75
49827;BME280;35715;51.570;6.036;2023-03-21T13:17:52;101069.44;;;15.69;59.45
49827;BME280;35715;51.570;6.036;2023-03-21T13:23:09;101069.72;;;15.57;59.23
49827;BME280;35715;51.570;6.036;2023-03-21T13:25:44;101072.72;;;15.65;60.17
49827;BME280;35715;51.570;6.036;2023-03-21T13:28:21;101062.84;;;15.75;59.75
49827;BME280;35715;51.570;6.036;2023-03-21T13:30:52;101062.66;;;15.89;60.34
49827;BME280;35715;51.570;6.036;2023-03-21T13:33:22;101058.28;;;15.88;60.82
49827;BME280;35715;51.570;6.036;2023-03-21T13:36:06;101060.50;;;15.80;57.85
49827;BME280;35715;51.570;6.036;2023-03-21T13:38:32;101058.88;;;15.82;59.64
49827;BME280;35715;51.570;6.036;2023-03-21T13:41:12;101063.25;;;15.67;57.36
49827;BME280;35715;51.570;6.036;2023-03-21T13:48:54;101045.16;;;15.52;57.24
49827;BME280;35715;51.570;6.036;2023-03-21T14:01:59;101033.31;;;15.91;56.89
49827;BME280;35715;51.570;6.036;2023-03-21T14:04:25;101041.41;;;15.98;56.15
49827;BME280;35715;51.570;6.036;2023-03-21T14:07:01;101032.03;;;16.19;56.52
49827;BME280;35715;51.570;6.036;2023-03-21T14:12:00;101031.72;;;16.31;56.09
49827;BME280;35715;51.570;6.036;2023-03-21T14:14:32;101024.59;;;16.27;56.26
49827;BME280;35715;51.570;6.036;2023-03-21T14:17:01;101035.16;;;16.12;56.75
49827;BME280;35715;51.570;6.036;2023-03-21T14:19:35;101016.66;;;16.06;55.91
49827;BME280;35715;51.570;6.036;2023-03-21T14:22:00;101015.97;;;16.10;56.23
49827;BME280;35715;51.570;6.036;2023-03-21T14:24:25;101021.63;;;16.19;56.62
49827;BME280;35715;51.570;6.036;2023-03-21T14:26:52;101018.84;;;16.34;57.12
49827;BME280;35715;51.570;6.036;2023-03-21T14:29:25;101004.25;;;16.38;56.46
49827;BME280;35715;51.570;6.036;2023-03-21T14:31:50;100995.41;;;16.34;56.93
49827;BME280;35715;51.570;6.036;2023-03-21T14:34:16;100986.06;;;16.20;57.21
49827;BME280;35715;51.570;6.036;2023-03-21T14:36:42;100997.09;;;16.14;57.07
49827;BME280;35715;51.570;6.036;2023-03-21T14:39:16;101000.16;;;16.05;56.56
49827;BME280;35715;51.570;6.036;2023-03-21T14:41:43;100997.91;;;15.95;57.22
49827;BME280;35715;51.570;6.036;2023-03-21T14:44:20;100995.59;;;15.83;57.27
49827;BME280;35715;51.570;6.036;2023-03-21T14:46:49;100998.28;;;16.03;58.73
49827;BME280;35715;51.570;6.036;2023-03-21T14:49:19;100997.31;;;16.01;57.66
49827;BME280;35715;51.570;6.036;2023-03-21T14:51:44;100993.81;;;16.00;58.33
49827;BME280;35715;51.570;6.036;2023-03-21T14:54:11;100986.56;;;15.93;58.53
49827;BME280;35715;51.570;6.036;2023-03-21T14:56:37;100984.03;;;15.94;58.05
49827;BME280;35715;51.570;6.036;2023-03-21T14:59:03;100982.97;;;15.91;59.29
49827;BME280;35715;51.570;6.036;2023-03-21T15:03:59;100971.84;;;15.77;58.22
49827;BME280;35715;51.570;6.036;2023-03-21T15:06:25;100976.75;;;15.71;58.81
49827;BME280;35715;51.570;6.036;2023-03-21T15:08:58;100970.38;;;15.64;58.62
49827;BME280;35715;51.570;6.036;2023-03-21T15:13:58;100976.53;;;15.66;60.32
49827;BME280;35715;51.570;6.036;2023-03-21T15:16:25;100977.41;;;15.67;60.32
49827;BME280;35715;51.570;6.036;2023-03-21T15:18:50;100970.22;;;15.61;60.23